createdAt,value
2019-01-31T00:01:45.684Z,29.07
2019-01-31T00:04:52.410Z,27.30
2019-01-31T00:07:28.968Z,29.00
2019-01-31T00:09:59.422Z,30.73
2019-01-31T00:12:35.609Z,28.53
2019-01-31T00:15:11.289Z,28.53
2019-01-31T00:17:50.595Z,29.07
2019-01-31T00:20:23.995Z,28.60
2019-01-31T00:23:17.281Z,28.70
2019-01-31T00:26:02.814Z,32.17
2019-01-31T00:28:45.693Z,30.17
2019-01-31T00:31:37.030Z,31.20
2019-01-31T00:34:13.211Z,31.93
2019-01-31T00:36:58.896Z,30.17
2019-01-31T00:39:29.385Z,29.03
2019-01-31T00:42:17.705Z,30.10
2019-01-31T00:44:48.205Z,32.30
2019-01-31T00:47:41.856Z,33.83
2019-01-31T00:50:25.248Z,31.60
2019-01-31T00:53:17.453Z,28.47
2019-01-31T00:56:00.204Z,31.40
2019-01-31T00:58:30.683Z,26.70
2019-01-31T01:01:19.012Z,28.00
2019-01-31T01:03:58.548Z,32.23
2019-01-31T01:06:34.784Z,32.33
2019-01-31T01:09:32.533Z,32.77
2019-01-31T01:12:18.365Z,28.37
2019-01-31T01:14:55.042Z,32.83
2019-01-31T01:17:25.497Z,31.43
2019-01-31T01:20:01.598Z,34.17
2019-01-31T01:22:43.760Z,35.60
2019-01-31T01:25:33.745Z,32.40
2019-01-31T01:28:21.094Z,31.87
2019-01-31T01:31:02.340Z,32.17
2019-01-31T01:33:49.918Z,34.03
2019-01-31T01:36:29.486Z,33.50
2019-01-31T01:39:00.001Z,30.37
2019-01-31T01:41:43.589Z,37.50
2019-01-31T01:44:38.115Z,31.60
2019-01-31T01:47:11.552Z,33.80
2019-01-31T01:49:48.162Z,34.03
2019-01-31T01:52:36.990Z,33.80
2019-01-31T01:55:25.935Z,33.00
2019-01-31T01:57:56.177Z,34.23
2019-01-31T02:00:43.182Z,37.23
2019-01-31T02:03:25.167Z,33.73
2019-01-31T02:06:01.163Z,32.33
2019-01-31T02:08:48.140Z,31.37
2019-01-31T02:11:44.489Z,34.17
2019-01-31T02:14:24.037Z,35.27
2019-01-31T02:16:59.938Z,30.77
2019-01-31T02:19:42.598Z,36.03
2019-01-31T02:22:28.281Z,33.70
2019-01-31T02:25:10.666Z,33.13
2019-01-31T02:28:08.067Z,38.93
2019-01-31T02:30:53.796Z,35.57
2019-01-31T02:33:30.111Z,35.00
2019-01-31T02:36:06.352Z,33.37
2019-01-31T02:38:39.221Z,35.23
2019-01-31T02:41:21.986Z,34.63
2019-01-31T02:43:52.352Z,31.93
2019-01-31T02:46:41.149Z,38.60
2019-01-31T02:49:20.671Z,35.53
2019-01-31T02:52:06.254Z,32.73
2019-01-31T02:54:39.383Z,34.80
2019-01-31T02:57:27.829Z,32.60
2019-01-31T03:00:24.298Z,34.37
2019-01-31T03:03:19.218Z,31.93
2019-01-31T03:05:54.298Z,35.30
2019-01-31T03:08:27.549Z,39.10
2019-01-31T03:11:13.261Z,34.47
2019-01-31T03:13:46.700Z,41.10
2019-01-31T03:16:25.873Z,34.70
2019-01-31T03:18:58.914Z,35.70
2019-01-31T03:21:58.481Z,35.83
2019-01-31T03:24:38.112Z,35.57
2019-01-31T03:27:30.160Z,37.63
2019-01-31T03:30:30.731Z,38.10
2019-01-31T03:33:13.098Z,38.20
2019-01-31T03:36:08.046Z,35.27
2019-01-31T03:38:56.278Z,36.43
2019-01-31T03:41:41.666Z,37.93
2019-01-31T03:44:12.139Z,35.30
2019-01-31T03:46:54.372Z,36.57
2019-01-31T03:49:36.681Z,35.47
2019-01-31T03:52:19.444Z,36.10
2019-01-31T03:55:19.027Z,37.00
2019-01-31T03:58:10.914Z,37.97
2019-01-31T04:01:04.194Z,40.43
2019-01-31T04:03:34.750Z,36.30
2019-01-31T04:06:07.697Z,40.40
2019-01-31T04:08:34.229Z,36.00
2019-01-31T04:11:00.965Z,40.50
2019-01-31T04:13:27.697Z,42.10
2019-01-31T04:15:54.262Z,37.43
2019-01-31T04:18:20.889Z,38.17
2019-01-31T04:20:47.541Z,41.30
2019-01-31T04:23:14.176Z,38.80
2019-01-31T04:25:42.246Z,35.93
2019-01-31T04:28:08.888Z,39.00
2019-01-31T04:30:35.447Z,36.47
2019-01-31T04:33:02.385Z,41.00
2019-01-31T04:35:29.064Z,40.83
2019-01-31T04:37:55.798Z,39.93
2019-01-31T04:40:31.149Z,39.20
2019-01-31T04:42:51.002Z,40.63
2019-01-31T04:45:17.665Z,35.80
2019-01-31T04:47:44.316Z,38.53
2019-01-31T04:50:13.001Z,38.60
2019-01-31T04:52:39.638Z,41.73
2019-01-31T04:55:06.903Z,36.20
2019-01-31T04:57:33.546Z,36.77
2019-01-31T05:00:00.256Z,40.10
2019-01-31T05:02:26.765Z,36.90
2019-01-31T05:04:53.424Z,35.70
2019-01-31T05:07:19.965Z,34.50
2019-01-31T05:09:46.431Z,35.63
2019-01-31T05:12:13.076Z,35.77
2019-01-31T05:14:39.699Z,35.40
2019-01-31T05:17:06.351Z,36.70
2019-01-31T05:19:32.884Z,34.47
2019-01-31T05:21:59.453Z,41.00
2019-01-31T05:24:26.205Z,33.77
2019-01-31T05:26:52.771Z,32.63
2019-01-31T05:29:21.002Z,35.03
2019-01-31T05:31:47.770Z,36.73
2019-01-31T05:34:14.719Z,34.83
2019-01-31T05:36:42.376Z,37.00
2019-01-31T05:39:10.622Z,37.30
2019-01-31T05:41:37.905Z,37.53
2019-01-31T05:44:04.449Z,36.97
2019-01-31T05:46:31.024Z,37.10
2019-01-31T05:48:57.679Z,38.10
2019-01-31T05:51:24.353Z,36.50
2019-01-31T05:53:51.180Z,38.87
2019-01-31T05:56:18.030Z,39.80
2019-01-31T05:58:44.577Z,38.83
2019-01-31T06:01:11.152Z,36.27
2019-01-31T06:03:37.678Z,35.30
2019-01-31T06:06:04.241Z,32.30
2019-01-31T06:08:30.788Z,36.53
2019-01-31T06:11:07.186Z,38.63
2019-01-31T06:13:25.798Z,34.40
2019-01-31T06:15:52.377Z,33.20
2019-01-31T06:18:18.906Z,33.17
2019-01-31T06:20:45.529Z,34.03
2019-01-31T06:23:12.171Z,32.53
2019-01-31T06:25:38.854Z,33.40
2019-01-31T06:28:05.592Z,33.13
2019-01-31T06:30:32.292Z,31.70
2019-01-31T06:32:58.941Z,31.03
2019-01-31T06:35:25.494Z,30.00
2019-01-31T06:37:52.138Z,30.20
2019-01-31T06:40:19.896Z,29.33
2019-01-31T06:42:46.604Z,30.27
2019-01-31T06:45:15.741Z,28.87
2019-01-31T06:47:42.609Z,31.77
2019-01-31T06:50:09.153Z,28.73
2019-01-31T06:52:35.922Z,30.80
2019-01-31T06:55:05.062Z,32.33
2019-01-31T06:57:31.628Z,30.00
2019-01-31T06:59:58.266Z,28.20
2019-01-31T07:02:25.293Z,30.47
2019-01-31T07:04:51.789Z,29.73
2019-01-31T07:07:18.355Z,30.40
2019-01-31T07:09:44.894Z,27.83
2019-01-31T07:12:11.453Z,35.00
2019-01-31T07:14:38.084Z,29.07
2019-01-31T07:17:04.759Z,27.50
2019-01-31T07:19:31.394Z,35.17
2019-01-31T07:21:58.066Z,28.90
2019-01-31T07:24:24.680Z,32.10
2019-01-31T07:26:51.345Z,27.97
2019-01-31T07:29:18.013Z,30.93
2019-01-31T07:31:44.727Z,30.60
2019-01-31T07:34:11.318Z,31.20
2019-01-31T07:36:37.999Z,32.90
2019-01-31T07:39:06.022Z,33.73
2019-01-31T07:41:40.938Z,33.43
2019-01-31T07:44:01.122Z,32.47
2019-01-31T07:46:27.730Z,32.23
2019-01-31T07:48:54.269Z,31.80
2019-01-31T07:51:20.808Z,32.10
2019-01-31T07:53:47.377Z,29.43
2019-01-31T07:56:14.015Z,32.30
2019-01-31T07:58:40.587Z,31.77
2019-01-31T08:01:07.121Z,34.53
2019-01-31T08:03:33.711Z,35.20
2019-01-31T08:06:00.340Z,32.30
2019-01-31T08:08:26.913Z,32.97
2019-01-31T08:10:53.557Z,30.47
2019-01-31T08:13:20.329Z,31.13
2019-01-31T08:15:46.869Z,32.63
2019-01-31T08:18:13.426Z,33.93
2019-01-31T08:20:40.070Z,35.27
2019-01-31T08:23:06.644Z,31.70
2019-01-31T08:25:33.287Z,35.50
2019-01-31T08:28:00.550Z,35.60
2019-01-31T08:30:37.835Z,32.97
2019-01-31T08:33:04.750Z,32.20
2019-01-31T08:35:31.589Z,32.90
2019-01-31T08:37:58.263Z,34.70
2019-01-31T08:40:24.969Z,32.37
2019-01-31T08:42:51.668Z,30.70
2019-01-31T08:45:18.207Z,33.03
2019-01-31T08:47:44.878Z,33.30
2019-01-31T08:50:14.837Z,29.53
2019-01-31T08:52:41.795Z,32.00
2019-01-31T08:55:08.647Z,33.87
2019-01-31T08:57:35.414Z,32.97
2019-01-31T09:00:11.678Z,30.83
2019-01-31T09:02:38.465Z,34.10
2019-01-31T09:05:05.903Z,31.70
2019-01-31T09:07:32.578Z,30.77
2019-01-31T09:09:59.090Z,30.20
2019-01-31T09:12:25.658Z,33.47
2019-01-31T09:14:52.249Z,34.90
2019-01-31T09:17:20.318Z,31.60
2019-01-31T09:19:46.861Z,30.03
2019-01-31T09:22:17.369Z,31.83
2019-01-31T09:24:53.869Z,31.47
2019-01-31T09:27:39.093Z,32.03
2019-01-31T09:30:27.637Z,28.80
2019-01-31T09:32:58.010Z,25.77
2019-01-31T09:35:31.097Z,27.47
2019-01-31T09:38:21.320Z,27.13
2019-01-31T09:41:08.508Z,23.30
2019-01-31T09:43:42.188Z,26.60
2019-01-31T09:46:33.647Z,25.03
2019-01-31T09:49:10.146Z,25.43
2019-01-31T09:51:58.681Z,29.00
2019-01-31T09:54:37.793Z,26.03
2019-01-31T09:57:08.242Z,25.60
2019-01-31T10:00:00.589Z,27.63
2019-01-31T10:02:34.157Z,24.87
2019-01-31T10:05:16.215Z,30.03
2019-01-31T10:07:52.114Z,25.17
2019-01-31T10:10:42.504Z,25.57
2019-01-31T10:13:28.100Z,28.47
2019-01-31T10:16:16.751Z,24.63
2019-01-31T10:19:02.120Z,24.60
2019-01-31T10:21:44.042Z,24.07
2019-01-31T10:24:29.610Z,26.30
2019-01-31T10:27:02.990Z,25.03
2019-01-31T10:29:39.762Z,24.30
2019-01-31T10:32:26.749Z,23.57
2019-01-31T10:34:57.198Z,23.13
2019-01-31T10:37:30.332Z,22.37
2019-01-31T10:40:20.923Z,23.43
2019-01-31T10:43:12.698Z,22.83
2019-01-31T10:45:52.129Z,24.20
2019-01-31T10:48:42.700Z,23.67
2019-01-31T10:51:30.193Z,23.40
2019-01-31T10:54:25.096Z,22.17
2019-01-31T10:56:58.440Z,21.80
2019-01-31T10:59:38.155Z,23.07
2019-01-31T11:02:30.187Z,22.23
2019-01-31T11:05:24.565Z,20.50
2019-01-31T11:08:07.147Z,20.57
2019-01-31T11:10:52.464Z,19.90
2019-01-31T11:13:32.002Z,19.67
2019-01-31T11:16:21.419Z,20.60
2019-01-31T11:18:51.913Z,21.20
2019-01-31T11:21:28.679Z,19.87
2019-01-31T11:24:15.693Z,20.40
2019-01-31T11:27:05.697Z,18.30
2019-01-31T11:29:47.884Z,19.77
2019-01-31T11:32:20.671Z,17.63
2019-01-31T11:35:05.477Z,17.67
2019-01-31T11:37:53.765Z,17.57
2019-01-31T11:40:32.738Z,17.77
2019-01-31T11:43:11.811Z,14.80
2019-01-31T11:45:43.618Z,14.00
2019-01-31T11:48:13.719Z,14.00
2019-01-31T11:51:17.289Z,12.20
2019-01-31T11:53:56.245Z,12.70
2019-01-31T11:56:38.630Z,13.77
2019-01-31T11:59:05.497Z,14.70
2019-01-31T12:01:32.592Z,13.67
2019-01-31T12:04:00.895Z,13.80
2019-01-31T12:06:27.148Z,14.33
2019-01-31T12:08:53.815Z,14.87
2019-01-31T12:11:20.076Z,15.40
2019-01-31T12:13:46.317Z,15.20
2019-01-31T12:16:12.602Z,16.37
2019-01-31T12:18:38.839Z,14.80
2019-01-31T12:21:05.077Z,14.43
2019-01-31T12:23:33.474Z,14.07
2019-01-31T12:26:01.764Z,15.00
2019-01-31T12:28:29.752Z,16.00
2019-01-31T12:30:56.426Z,14.60
2019-01-31T12:33:23.160Z,14.47
2019-01-31T12:35:49.936Z,13.43
2019-01-31T12:38:16.502Z,14.17
2019-01-31T12:40:43.190Z,13.60
2019-01-31T12:43:10.122Z,15.00
2019-01-31T12:45:36.842Z,14.43
2019-01-31T12:48:05.199Z,13.50
2019-01-31T12:50:33.394Z,13.73
2019-01-31T12:53:00.162Z,13.70
2019-01-31T12:55:26.792Z,14.57
2019-01-31T12:57:53.580Z,14.60
2019-01-31T13:00:25.440Z,13.30
2019-01-31T13:02:52.681Z,12.10
2019-01-31T13:05:20.550Z,12.23
2019-01-31T13:07:48.888Z,10.53
2019-01-31T13:10:16.574Z,10.27
2019-01-31T13:12:48.826Z,9.60
2019-01-31T13:15:14.868Z,9.00
2019-01-31T13:17:42.298Z,9.40
2019-01-31T13:20:18.105Z,9.77
2019-01-31T13:22:45.601Z,9.17
2019-01-31T13:25:14.246Z,9.70
2019-01-31T13:27:41.488Z,10.43
2019-01-31T13:30:14.382Z,10.67
2019-01-31T13:32:43.020Z,10.63
2019-01-31T13:35:12.012Z,10.87
2019-01-31T13:37:39.448Z,10.03
2019-01-31T13:40:13.553Z,10.10
2019-01-31T13:42:41.219Z,10.47
2019-01-31T13:45:11.414Z,10.53
2019-01-31T13:47:38.052Z,9.07
2019-01-31T13:50:09.638Z,9.10
2019-01-31T13:52:36.273Z,8.73
2019-01-31T13:55:06.865Z,8.77
2019-01-31T13:57:33.501Z,9.10
2019-01-31T14:00:02.087Z,8.70
2019-01-31T14:02:28.861Z,8.27
2019-01-31T14:04:55.472Z,7.90
2019-01-31T14:07:22.011Z,7.53
2019-01-31T14:09:48.602Z,9.77
2019-01-31T14:12:15.233Z,7.17
2019-01-31T14:14:42.014Z,7.33
2019-01-31T14:17:08.645Z,8.30
2019-01-31T14:19:35.334Z,7.33
2019-01-31T14:22:03.128Z,7.00
2019-01-31T14:24:29.923Z,7.10
2019-01-31T14:26:56.601Z,7.00
2019-01-31T14:29:23.290Z,7.07
2019-01-31T14:31:49.936Z,6.67
2019-01-31T14:34:16.652Z,6.57
2019-01-31T14:36:43.295Z,7.60
2019-01-31T14:39:09.930Z,6.73
2019-01-31T14:41:36.623Z,6.03
2019-01-31T14:44:03.614Z,6.70
2019-01-31T14:46:30.294Z,6.30
2019-01-31T14:48:56.969Z,5.63
2019-01-31T14:51:23.770Z,6.27
2019-01-31T14:53:51.222Z,5.83
2019-01-31T14:56:17.907Z,6.20
2019-01-31T14:58:44.547Z,5.90
2019-01-31T15:01:11.251Z,7.87
2019-01-31T15:03:38.892Z,6.40
2019-01-31T15:06:05.559Z,6.70
2019-01-31T15:08:32.241Z,6.10
2019-01-31T15:10:59.186Z,6.40
2019-01-31T15:13:25.827Z,6.30
2019-01-31T15:15:52.509Z,7.07
2019-01-31T15:18:21.270Z,6.67
2019-01-31T15:20:48.655Z,6.57
2019-01-31T15:23:15.984Z,6.30
2019-01-31T15:25:42.750Z,6.40
2019-01-31T15:28:09.488Z,6.90
2019-01-31T15:30:36.695Z,6.83
2019-01-31T15:33:06.644Z,7.50
2019-01-31T15:35:33.325Z,6.37
2019-01-31T15:37:59.920Z,5.97
2019-01-31T15:40:33.157Z,7.37
2019-01-31T15:43:00.059Z,7.43
2019-01-31T15:45:26.796Z,7.20
2019-01-31T15:47:53.466Z,7.30
2019-01-31T15:50:20.356Z,6.53
2019-01-31T15:52:47.010Z,7.40
2019-01-31T15:55:16.801Z,7.27
2019-01-31T15:57:43.346Z,8.13
2019-01-31T16:00:20.484Z,7.53
2019-01-31T16:02:47.428Z,9.53
2019-01-31T16:05:19.028Z,8.40
2019-01-31T16:07:42.558Z,8.23
2019-01-31T16:10:09.449Z,9.03
2019-01-31T16:12:35.973Z,9.43
2019-01-31T16:15:06.037Z,8.93
2019-01-31T16:17:32.548Z,8.80
2019-01-31T16:19:59.342Z,8.37
2019-01-31T16:22:26.138Z,9.87
2019-01-31T16:24:52.850Z,8.50
2019-01-31T16:27:19.440Z,9.23
2019-01-31T16:29:46.390Z,8.90
2019-01-31T16:32:13.741Z,9.20
2019-01-31T16:34:40.752Z,9.20
2019-01-31T16:37:07.322Z,9.50
2019-01-31T16:39:35.718Z,10.20
2019-01-31T16:42:02.641Z,9.13
2019-01-31T16:44:29.186Z,9.50
2019-01-31T16:46:56.166Z,10.20
2019-01-31T16:49:22.845Z,10.33
2019-01-31T16:51:49.400Z,11.87
2019-01-31T16:54:16.088Z,11.63
2019-01-31T16:56:42.778Z,12.30
2019-01-31T16:59:09.907Z,12.13
2019-01-31T17:01:36.542Z,12.87
2019-01-31T17:04:04.212Z,13.30
2019-01-31T17:06:30.808Z,13.67
2019-01-31T17:08:57.621Z,14.10
2019-01-31T17:11:25.009Z,16.47
2019-01-31T17:13:51.738Z,15.20
2019-01-31T17:16:18.492Z,12.90
2019-01-31T17:18:45.301Z,13.97
2019-01-31T17:21:13.167Z,16.10
2019-01-31T17:23:39.838Z,14.27
2019-01-31T17:26:06.422Z,14.07
2019-01-31T17:28:33.127Z,15.73
2019-01-31T17:30:59.967Z,15.30
2019-01-31T17:33:26.550Z,15.00
2019-01-31T17:35:53.325Z,14.87
2019-01-31T17:38:20.173Z,17.27
2019-01-31T17:40:47.057Z,14.77
2019-01-31T17:43:13.831Z,14.00
2019-01-31T17:45:40.866Z,15.40
2019-01-31T17:48:08.969Z,15.07
2019-01-31T17:50:36.358Z,14.70
2019-01-31T17:53:03.711Z,14.90
2019-01-31T17:55:30.685Z,14.80
2019-01-31T17:57:58.630Z,14.90
2019-01-31T18:00:36.427Z,13.93
2019-01-31T18:03:05.419Z,15.33
2019-01-31T18:05:32.577Z,16.37
2019-01-31T18:07:59.546Z,17.23
2019-01-31T18:10:26.599Z,15.13
2019-01-31T18:12:54.457Z,14.63
2019-01-31T18:15:22.089Z,16.17
2019-01-31T18:17:49.973Z,16.83
2019-01-31T18:20:20.207Z,15.47
2019-01-31T18:22:47.266Z,15.80
2019-01-31T18:25:14.940Z,15.90
2019-01-31T18:27:42.733Z,16.50
2019-01-31T18:30:18.711Z,16.40
2019-01-31T18:32:46.609Z,18.67
2019-01-31T18:35:14.340Z,16.43
2019-01-31T18:37:42.147Z,22.67
2019-01-31T18:40:15.668Z,21.57
2019-01-31T18:42:43.809Z,20.50
2019-01-31T18:45:14.370Z,20.87
2019-01-31T18:47:41.918Z,20.63
2019-01-31T18:50:15.633Z,22.53
2019-01-31T18:52:45.228Z,23.00
2019-01-31T18:55:13.640Z,19.80
2019-01-31T18:57:41.660Z,24.23
2019-01-31T19:00:22.936Z,21.70
2019-01-31T19:02:52.665Z,20.97
2019-01-31T19:05:20.926Z,21.97
2019-01-31T19:07:49.070Z,24.30
2019-01-31T19:10:17.397Z,24.07
2019-01-31T19:12:45.235Z,22.57
2019-01-31T19:15:17.809Z,25.30
2019-01-31T19:17:45.454Z,25.23
2019-01-31T19:20:18.510Z,25.70
2019-01-31T19:22:46.958Z,23.93
2019-01-31T19:25:15.169Z,23.77
2019-01-31T19:27:43.414Z,23.60
2019-01-31T19:30:20.113Z,28.90
2019-01-31T19:32:48.357Z,25.80
2019-01-31T19:35:16.832Z,27.73
2019-01-31T19:37:45.215Z,30.40
2019-01-31T19:40:15.982Z,27.47
2019-01-31T19:42:43.886Z,29.63
2019-01-31T19:45:26.381Z,27.43
2019-01-31T19:47:54.655Z,30.60
2019-01-31T19:50:22.976Z,30.90
2019-01-31T19:52:53.206Z,31.90
2019-01-31T19:55:21.430Z,28.87
2019-01-31T19:57:49.742Z,30.67
2019-01-31T20:00:23.391Z,31.10
2019-01-31T20:02:51.728Z,34.60
2019-01-31T20:05:20.213Z,28.50
2019-01-31T20:07:48.950Z,31.50
2019-01-31T20:10:19.509Z,30.90
2019-01-31T20:12:47.863Z,29.70
2019-01-31T20:15:16.197Z,30.30
2019-01-31T20:17:44.309Z,29.87
2019-01-31T20:20:21.014Z,34.93
2019-01-31T20:22:50.014Z,29.43
2019-01-31T20:25:18.558Z,32.20
2019-01-31T20:27:46.865Z,34.63
2019-01-31T20:30:20.168Z,33.67
2019-01-31T20:32:48.462Z,34.40
2019-01-31T20:35:18.428Z,34.27
2019-01-31T20:37:46.909Z,34.50
2019-01-31T20:40:28.930Z,32.73
2019-01-31T20:42:56.880Z,35.90
2019-01-31T20:45:25.285Z,33.83
2019-01-31T20:47:53.567Z,35.83
2019-01-31T20:50:32.178Z,36.53
2019-01-31T20:53:00.426Z,39.80
2019-01-31T20:55:28.900Z,37.10
2019-01-31T20:57:57.422Z,38.77
2019-01-31T21:00:36.914Z,40.27
2019-01-31T21:03:07.589Z,36.60
2019-01-31T21:05:36.080Z,35.20
2019-01-31T21:08:05.224Z,38.13
2019-01-31T21:10:33.555Z,38.70
2019-01-31T21:13:01.619Z,36.03
2019-01-31T21:15:29.754Z,36.70
2019-01-31T21:17:57.673Z,39.67
2019-01-31T21:20:26.764Z,41.43
2019-01-31T21:22:54.849Z,37.83
2019-01-31T21:25:23.069Z,39.13
2019-01-31T21:27:51.095Z,41.30
2019-01-31T21:30:24.386Z,39.87
2019-01-31T21:32:52.253Z,37.57
2019-01-31T21:35:20.665Z,39.13
2019-01-31T21:37:48.029Z,41.60
2019-01-31T21:40:17.631Z,40.07
2019-01-31T21:42:44.400Z,40.17
2019-01-31T21:45:17.384Z,39.33
2019-01-31T21:47:44.237Z,43.00
2019-01-31T21:50:17.218Z,41.70
2019-01-31T21:52:43.887Z,42.13
2019-01-31T21:55:12.409Z,39.80
2019-01-31T21:57:38.983Z,45.70
2019-01-31T22:00:12.489Z,42.27
2019-01-31T22:02:39.236Z,41.90
2019-01-31T22:05:09.569Z,45.93
2019-01-31T22:07:37.141Z,43.73
2019-01-31T22:10:07.292Z,44.80
2019-01-31T22:12:34.298Z,40.90
2019-01-31T22:15:00.982Z,43.13
2019-01-31T22:17:28.095Z,42.63
2019-01-31T22:19:54.804Z,42.23
2019-01-31T22:22:21.407Z,42.57
2019-01-31T22:24:48.098Z,42.97
2019-01-31T22:27:14.851Z,45.20
2019-01-31T22:29:43.102Z,41.93
2019-01-31T22:32:09.791Z,43.43
2019-01-31T22:34:37.118Z,44.63
2019-01-31T22:37:04.510Z,40.23
2019-01-31T22:39:31.151Z,43.57
2019-01-31T22:41:57.861Z,47.43
2019-01-31T22:44:24.546Z,44.30
2019-01-31T22:46:51.358Z,45.17
2019-01-31T22:49:18.896Z,44.03
2019-01-31T22:51:45.536Z,42.20
2019-01-31T22:54:12.225Z,45.70
2019-01-31T22:56:38.918Z,47.43
2019-01-31T22:59:05.499Z,42.47
2019-01-31T23:01:34.288Z,43.73
2019-01-31T23:04:00.855Z,44.07
2019-01-31T23:06:29.181Z,39.90
2019-01-31T23:08:57.650Z,46.47
2019-01-31T23:11:24.199Z,42.47
2019-01-31T23:13:51.041Z,44.93
2019-01-31T23:16:17.726Z,46.57
2019-01-31T23:18:44.377Z,46.33
2019-01-31T23:21:11.049Z,46.53
2019-01-31T23:23:37.724Z,49.17
2019-01-31T23:26:06.014Z,42.77
2019-01-31T23:28:34.386Z,45.60
2019-01-31T23:31:01.250Z,43.20
2019-01-31T23:33:27.955Z,40.70
2019-01-31T23:35:54.578Z,42.00
2019-01-31T23:38:21.227Z,47.20
2019-01-31T23:40:47.913Z,46.53
2019-01-31T23:43:14.661Z,46.23
2019-01-31T23:45:41.194Z,46.40
2019-01-31T23:48:07.938Z,47.13
2019-01-31T23:50:34.439Z,51.70
2019-01-31T23:53:01.333Z,43.40
2019-01-31T23:55:29.578Z,49.10
2019-01-31T23:57:57.660Z,51.23
